sensor_id;sensor_type;location;lat;lon;timestamp;pressure;altitude;pressure_sealevel;temperature;humidity
46722;BME280;32455;43.430;23.136;2022-11-30T00:01:37;98701.13;;;0.61;100.00
46722;BME280;32455;43.430;23.136;2022-11-30T00:04:22;98694.31;;;0.59;100.00
46722;BME280;32455;43.430;23.136;2022-11-30T00:07:08;98690.06;;;0.75;100.00
46722;BME280;32455;43.430;23.136;2022-11-30T00:09:53;98700.72;;;0.84;100.00
46722;BME280;32455;43.430;23.136;2022-11-30T00:12:39;98692.22;;;0.62;100.00
46722;BME280;32455;43.430;23.136;2022-11-30T00:15:27;98682.38;;;0.82;100.00
46722;BME280;32455;43.430;23.136;2022-11-30T00:18:12;98706.44;;;1.07;100.00
46722;BME280;32455;43.430;23.136;2022-11-30T00:21:02;98708.31;;;0.96;100.00
46722;BME280;32455;43.430;23.136;2022-11-30T00:23:47;98707.47;;;0.96;100.00
46722;BME280;32455;43.430;23.136;2022-11-30T00:26:33;98708.47;;;0.95;100.00
46722;BME280;32455;43.430;23.136;2022-11-30T00:29:18;98714.44;;;0.97;100.00
46722;BME280;32455;43.430;23.136;2022-11-30T00:32:04;98696.91;;;0.96;100.00
46722;BME280;32455;43.430;23.136;2022-11-30T00:34:49;98685.78;;;0.92;100.00
46722;BME280;32455;43.430;23.136;2022-11-30T00:37:35;98699.34;;;1.07;100.00
46722;BME280;32455;43.430;23.136;2022-11-30T00:40:20;98689.41;;;0.91;100.00
46722;BME280;32455;43.430;23.136;2022-11-30T00:43:06;98695.81;;;0.89;100.00
46722;BME280;32455;43.430;23.136;2022-11-30T00:45:50;98691.63;;;0.96;100.00
46722;BME280;32455;43.430;23.136;2022-11-30T00:48:38;98700.72;;;0.84;100.00
46722;BME280;32455;43.430;23.136;2022-11-30T00:51:24;98699.91;;;0.83;100.00
46722;BME280;32455;43.430;23.136;2022-11-30T00:54:09;98690.59;;;0.79;100.00
46722;BME280;32455;43.430;23.136;2022-11-30T00:56:55;98684.91;;;0.74;100.00
46722;BME280;32455;43.430;23.136;2022-11-30T00:59:40;98696.19;;;0.94;100.00
46722;BME280;32455;43.430;23.136;2022-11-30T01:02:26;98670.66;;;0.85;100.00
46722;BME280;32455;43.430;23.136;2022-11-30T01:05:11;98693.81;;;1.00;100.00
46722;BME280;32455;43.430;23.136;2022-11-30T01:07:59;98696.00;;;1.05;100.00
46722;BME280;32455;43.430;23.136;2022-11-30T01:10:44;98683.28;;;0.91;100.00
46722;BME280;32455;43.430;23.136;2022-11-30T01:13:32;98680.75;;;0.99;100.00
46722;BME280;32455;43.430;23.136;2022-11-30T01:16:22;98693.19;;;1.07;100.00
46722;BME280;32455;43.430;23.136;2022-11-30T01:19:07;98693.19;;;1.07;100.00
46722;BME280;32455;43.430;23.136;2022-11-30T01:21:53;98685.41;;;1.05;100.00
46722;BME280;32455;43.430;23.136;2022-11-30T01:24:38;98693.16;;;1.16;100.00
46722;BME280;32455;43.430;23.136;2022-11-30T01:27:24;98693.97;;;1.17;100.00
46722;BME280;32455;43.430;23.136;2022-11-30T01:30:09;98687.69;;;1.36;100.00
46722;BME280;32455;43.430;23.136;2022-11-30T01:32:54;98684.44;;;1.24;100.00
46722;BME280;32455;43.430;23.136;2022-11-30T01:35:40;98676.81;;;1.21;100.00
46722;BME280;32455;43.430;23.136;2022-11-30T01:38:29;98686.88;;;1.35;100.00
46722;BME280;32455;43.430;23.136;2022-11-30T01:41:22;98689.22;;;1.20;100.00
46722;BME280;32455;43.430;23.136;2022-11-30T01:47:04;98676.28;;;1.17;100.00
46722;BME280;32455;43.430;23.136;2022-11-30T01:49:55;98679.50;;;1.11;100.00
46722;BME280;32455;43.430;23.136;2022-11-30T01:52:49;98673.81;;;1.16;100.00
46722;BME280;32455;43.430;23.136;2022-11-30T01:55:36;98682.94;;;1.21;100.00
46722;BME280;32455;43.430;23.136;2022-11-30T01:58:26;98679.69;;;1.28;100.00
46722;BME280;32455;43.430;23.136;2022-11-30T02:01:13;98677.09;;;1.36;100.00
46722;BME280;32455;43.430;23.136;2022-11-30T02:04:02;98677.94;;;1.18;100.00
46722;BME280;32455;43.430;23.136;2022-11-30T02:06:48;98683.84;;;1.12;100.00
46722;BME280;32455;43.430;23.136;2022-11-30T02:09:41;98664.91;;;0.89;100.00
46722;BME280;32455;43.430;23.136;2022-11-30T02:12:51;98688.59;;;0.91;100.00
46722;BME280;32455;43.430;23.136;2022-11-30T02:19:26;98692.13;;;0.82;100.00
46722;BME280;32455;43.430;23.136;2022-11-30T02:28:29;98688.72;;;0.89;100.00
46722;BME280;32455;43.430;23.136;2022-11-30T02:31:19;98690.78;;;0.95;100.00
46722;BME280;32455;43.430;23.136;2022-11-30T02:34:08;98688.81;;;0.97;100.00
46722;BME280;32455;43.430;23.136;2022-11-30T02:36:57;98685.63;;;0.94;100.00
46722;BME280;32455;43.430;23.136;2022-11-30T02:39:43;98680.28;;;0.86;100.00
46722;BME280;32455;43.430;23.136;2022-11-30T02:42:29;98679.41;;;0.85;100.00
46722;BME280;32455;43.430;23.136;2022-11-30T02:45:15;98677.53;;;0.78;100.00
46722;BME280;32455;43.430;23.136;2022-11-30T02:48:11;98682.75;;;0.87;100.00
46722;BME280;32455;43.430;23.136;2022-11-30T02:51:01;98690.25;;;0.92;100.00
46722;BME280;32455;43.430;23.136;2022-11-30T02:53:49;98672.06;;;0.79;100.00
46722;BME280;32455;43.430;23.136;2022-11-30T02:56:35;98675.09;;;0.84;100.00
46722;BME280;32455;43.430;23.136;2022-11-30T02:59:21;98691.53;;;0.88;100.00
46722;BME280;32455;43.430;23.136;2022-11-30T03:02:06;98671.53;;;0.75;100.00
46722;BME280;32455;43.430;23.136;2022-11-30T03:04:51;98695.16;;;0.87;100.00
46722;BME280;32455;43.430;23.136;2022-11-30T03:07:37;98690.44;;;0.81;100.00
46722;BME280;32455;43.430;23.136;2022-11-30T03:10:21;98690.22;;;0.74;100.00
46722;BME280;32455;43.430;23.136;2022-11-30T03:13:06;98694.13;;;0.70;100.00
46722;BME280;32455;43.430;23.136;2022-11-30T03:15:52;98686.47;;;0.67;100.00
46722;BME280;32455;43.430;23.136;2022-11-30T03:18:38;98684.56;;;0.59;100.00
46722;BME280;32455;43.430;23.136;2022-11-30T03:21:24;98679.28;;;0.59;100.00
46722;BME280;32455;43.430;23.136;2022-11-30T03:24:10;98679.44;;;0.58;100.00
46722;BME280;32455;43.430;23.136;2022-11-30T03:26:55;98692.22;;;0.62;100.00
46722;BME280;32455;43.430;23.136;2022-11-30T03:29:40;98682.22;;;0.56;100.00
46722;BME280;32455;43.430;23.136;2022-11-30T03:32:26;98690.16;;;0.56;100.00
46722;BME280;32455;43.430;23.136;2022-11-30T03:35:11;98689.84;;;0.59;100.00
46722;BME280;32455;43.430;23.136;2022-11-30T03:37:56;98682.69;;;0.52;100.00
46722;BME280;32455;43.430;23.136;2022-11-30T03:40:42;98687.22;;;0.59;100.00
46722;BME280;32455;43.430;23.136;2022-11-30T03:43:27;98696.22;;;0.66;100.00
46722;BME280;32455;43.430;23.136;2022-11-30T03:46:13;98685.56;;;0.58;100.00
46722;BME280;32455;43.430;23.136;2022-11-30T03:48:58;98679.59;;;0.46;100.00
46722;BME280;32455;43.430;23.136;2022-11-30T03:51:43;98694.75;;;0.54;100.00
46722;BME280;32455;43.430;23.136;2022-11-30T03:54:29;98668.81;;;0.40;100.00
46722;BME280;32455;43.430;23.136;2022-11-30T03:57:14;98696.41;;;0.55;100.00
46722;BME280;32455;43.430;23.136;2022-11-30T03:59:59;98688.03;;;0.60;100.00
46722;BME280;32455;43.430;23.136;2022-11-30T04:02:44;98694.25;;;0.68;100.00
46722;BME280;32455;43.430;23.136;2022-11-30T04:05:30;98689.72;;;0.61;100.00
46722;BME280;32455;43.430;23.136;2022-11-30T04:08:15;98698.94;;;0.57;100.00
46722;BME280;32455;43.430;23.136;2022-11-30T04:11:02;98685.72;;;0.47;100.00
46722;BME280;32455;43.430;23.136;2022-11-30T04:13:48;98704.94;;;0.49;100.00
46722;BME280;32455;43.430;23.136;2022-11-30T04:16:33;98696.75;;;0.42;100.00
46722;BME280;32455;43.430;23.136;2022-11-30T04:19:18;98695.78;;;0.43;100.00
46722;BME280;32455;43.430;23.136;2022-11-30T04:22:04;98700.63;;;0.48;100.00
46722;BME280;32455;43.430;23.136;2022-11-30T04:24:49;98701.69;;;0.55;100.00
46722;BME280;32455;43.430;23.136;2022-11-30T04:27:35;98704.22;;;0.47;100.00
46722;BME280;32455;43.430;23.136;2022-11-30T04:30:21;98700.03;;;0.54;100.00
46722;BME280;32455;43.430;23.136;2022-11-30T04:33:06;98701.84;;;0.54;100.00
46722;BME280;32455;43.430;23.136;2022-11-30T04:35:54;98708.69;;;0.56;100.00
46722;BME280;32455;43.430;23.136;2022-11-30T04:38:40;98707.44;;;0.50;100.00
46722;BME280;32455;43.430;23.136;2022-11-30T04:41:25;98694.38;;;0.49;100.00
46722;BME280;32455;43.430;23.136;2022-11-30T04:44:10;98704.94;;;0.49;100.00
46722;BME280;32455;43.430;23.136;2022-11-30T04:46:55;98710.06;;;0.50;100.00
46722;BME280;32455;43.430;23.136;2022-11-30T04:49:40;98723.28;;;0.60;100.00
46722;BME280;32455;43.430;23.136;2022-11-30T04:52:25;98706.06;;;0.46;100.00
46722;BME280;32455;43.430;23.136;2022-11-30T04:55:10;98704.53;;;0.44;100.00
46722;BME280;32455;43.430;23.136;2022-11-30T04:57:56;98716.34;;;0.49;100.00
46722;BME280;32455;43.430;23.136;2022-11-30T05:00:41;98718.94;;;0.59;100.00
46722;BME280;32455;43.430;23.136;2022-11-30T05:03:26;98719.53;;;0.53;100.00
46722;BME280;32455;43.430;23.136;2022-11-30T05:06:12;98714.41;;;0.52;100.00
46722;BME280;32455;43.430;23.136;2022-11-30T05:08:57;98722.34;;;0.52;100.00
46722;BME280;32455;43.430;23.136;2022-11-30T05:11:42;98722.03;;;0.55;100.00
46722;BME280;32455;43.430;23.136;2022-11-30T05:14:28;98711.66;;;0.43;100.00
46722;BME280;32455;43.430;23.136;2022-11-30T05:17:14;98730.25;;;0.52;100.00
46722;BME280;32455;43.430;23.136;2022-11-30T05:19:59;98732.75;;;0.53;100.00
46722;BME280;32455;43.430;23.136;2022-11-30T05:22:44;98718.16;;;0.49;100.00
46722;BME280;32455;43.430;23.136;2022-11-30T05:25:29;98723.28;;;0.50;100.00
46722;BME280;32455;43.430;23.136;2022-11-30T05:28:15;98740.91;;;0.60;100.00
46722;BME280;32455;43.430;23.136;2022-11-30T05:31:04;98733.16;;;0.58;100.00
46722;BME280;32455;43.430;23.136;2022-11-30T05:33:50;98732.59;;;0.55;100.00
46722;BME280;32455;43.430;23.136;2022-11-30T05:36:36;98740.09;;;0.59;100.00
46722;BME280;32455;43.430;23.136;2022-11-30T05:39:22;98746.53;;;0.57;100.00
46722;BME280;32455;43.430;23.136;2022-11-30T05:42:07;98748.19;;;0.58;100.00
46722;BME280;32455;43.430;23.136;2022-11-30T05:44:53;98751.38;;;0.61;100.00
46722;BME280;32455;43.430;23.136;2022-11-30T05:47:39;98752.44;;;0.68;100.00
46722;BME280;32455;43.430;23.136;2022-11-30T05:50:24;98740.09;;;0.59;100.00
46722;BME280;32455;43.430;23.136;2022-11-30T05:53:09;98752.19;;;0.62;100.00
46722;BME280;32455;43.430;23.136;2022-11-30T05:55:55;98745.38;;;0.59;100.00
46722;BME280;32455;43.430;23.136;2022-11-30T05:58:40;98746.66;;;0.55;100.00
46722;BME280;32455;43.430;23.136;2022-11-30T06:01:27;98755.69;;;0.62;100.00
46722;BME280;32455;43.430;23.136;2022-11-30T06:04:12;98746.91;;;0.62;100.00
46722;BME280;32455;43.430;23.136;2022-11-30T06:06:58;98758.81;;;0.75;100.00
46722;BME280;32455;43.430;23.136;2022-11-30T06:09:43;98759.09;;;0.72;100.00
46722;BME280;32455;43.430;23.136;2022-11-30T06:12:28;98763.00;;;0.78;100.00
46722;BME280;32455;43.430;23.136;2022-11-30T06:15:13;98756.91;;;0.68;100.00
46722;BME280;32455;43.430;23.136;2022-11-30T06:17:59;98769.69;;;0.72;100.00
46722;BME280;32455;43.430;23.136;2022-11-30T06:20:44;98759.03;;;0.64;100.00
46722;BME280;32455;43.430;23.136;2022-11-30T06:23:30;98769.69;;;0.72;100.00
46722;BME280;32455;43.430;23.136;2022-11-30T06:26:16;98771.66;;;0.70;100.00
46722;BME280;32455;43.430;23.136;2022-11-30T06:29:01;98776.66;;;0.73;100.00
46722;BME280;32455;43.430;23.136;2022-11-30T06:31:46;98779.97;;;0.75;100.00
46722;BME280;32455;43.430;23.136;2022-11-30T06:34:32;98777.09;;;0.69;100.00
46722;BME280;32455;43.430;23.136;2022-11-30T06:37:17;98773.19;;;0.73;100.00
46722;BME280;32455;43.430;23.136;2022-11-30T06:40:03;98781.63;;;0.77;100.00
46722;BME280;32455;43.430;23.136;2022-11-30T06:42:48;98779.25;;;0.83;100.00
46722;BME280;32455;43.430;23.136;2022-11-30T06:45:34;98783.97;;;0.89;100.00
46722;BME280;32455;43.430;23.136;2022-11-30T06:48:19;98779.91;;;0.95;100.00
46722;BME280;32455;43.430;23.136;2022-11-30T06:51:08;98786.41;;;1.00;100.00
46722;BME280;32455;43.430;23.136;2022-11-30T06:53:54;98769.31;;;0.95;100.00
46722;BME280;32455;43.430;23.136;2022-11-30T06:56:40;98786.69;;;1.07;100.00
46722;BME280;32455;43.430;23.136;2022-11-30T06:59:25;98789.31;;;1.07;100.00
46722;BME280;32455;43.430;23.136;2022-11-30T07:02:12;98779.69;;;1.06;100.00
46722;BME280;32455;43.430;23.136;2022-11-30T07:04:58;98769.81;;;1.08;100.00
46722;BME280;32455;43.430;23.136;2022-11-30T07:07:43;98781.38;;;1.07;100.00
46722;BME280;32455;43.430;23.136;2022-11-30T07:10:28;98778.59;;;1.09;100.00
46722;BME280;32455;43.430;23.136;2022-11-30T07:13:16;98786.06;;;1.13;100.00
46722;BME280;32455;43.430;23.136;2022-11-30T07:16:07;98790.19;;;1.25;100.00
46722;BME280;32455;43.430;23.136;2022-11-30T07:18:53;98793.41;;;1.19;100.00
46722;BME280;32455;43.430;23.136;2022-11-30T07:21:38;98796.41;;;1.34;100.00
46722;BME280;32455;43.430;23.136;2022-11-30T07:24:24;98798.91;;;1.36;100.00
46722;BME280;32455;43.430;23.136;2022-11-30T07:27:28;98798.44;;;1.40;100.00
46722;BME280;32455;43.430;23.136;2022-11-30T07:30:13;98794.06;;;1.49;100.00
46722;BME280;32455;43.430;23.136;2022-11-30T07:32:59;98803.75;;;1.40;100.00
46722;BME280;32455;43.430;23.136;2022-11-30T07:35:44;98806.41;;;1.58;100.00
46722;BME280;32455;43.430;23.136;2022-11-30T07:38:30;98808.31;;;1.66;100.00
46722;BME280;32455;43.430;23.136;2022-11-30T07:41:16;98800.38;;;1.66;100.00
46722;BME280;32455;43.430;23.136;2022-11-30T07:44:03;98805.91;;;1.72;100.00
46722;BME280;32455;43.430;23.136;2022-11-30T07:46:49;98804.75;;;1.75;100.00
46722;BME280;32455;43.430;23.136;2022-11-30T07:49:34;98796.00;;;1.74;100.00
46722;BME280;32455;43.430;23.136;2022-11-30T07:52:20;98799.91;;;1.70;100.00
46722;BME280;32455;43.430;23.136;2022-11-30T07:55:06;98799.91;;;1.70;100.00
46722;BME280;32455;43.430;23.136;2022-11-30T07:57:52;98815.13;;;1.50;100.00
46722;BME280;32455;43.430;23.136;2022-11-30T08:00:37;98817.00;;;1.58;100.00
46722;BME280;32455;43.430;23.136;2022-11-30T08:03:23;98813.63;;;1.66;100.00
46722;BME280;32455;43.430;23.136;2022-11-30T08:06:11;98815.25;;;1.49;100.00
46722;BME280;32455;43.430;23.136;2022-11-30T08:09:02;98814.44;;;1.66;100.00
46722;BME280;32455;43.430;23.136;2022-11-30T08:11:48;98816.97;;;1.68;100.00
46722;BME280;32455;43.430;23.136;2022-11-30T08:14:34;98825.00;;;1.76;100.00
46722;BME280;32455;43.430;23.136;2022-11-30T08:17:19;98822.94;;;1.70;100.00
46722;BME280;32455;43.430;23.136;2022-11-30T08:20:05;98807.84;;;1.53;100.00
46722;BME280;32455;43.430;23.136;2022-11-30T08:22:51;98823.06;;;1.50;100.00
46722;BME280;32455;43.430;23.136;2022-11-30T08:25:36;98832.13;;;1.48;100.00
46722;BME280;32455;43.430;23.136;2022-11-30T08:28:22;98824.81;;;1.42;100.00
46722;BME280;32455;43.430;23.136;2022-11-30T08:31:11;98833.97;;;1.47;100.00
46722;BME280;32455;43.430;23.136;2022-11-30T08:34:00;98834.72;;;1.58;100.00
46722;BME280;32455;43.430;23.136;2022-11-30T08:36:45;98819.25;;;1.35;100.00
46722;BME280;32455;43.430;23.136;2022-11-30T08:39:31;98829.28;;;1.41;100.00
46722;BME280;32455;43.430;23.136;2022-11-30T08:42:18;98832.84;;;1.50;100.00
46722;BME280;32455;43.430;23.136;2022-11-30T08:45:04;98821.47;;;1.58;100.00
46722;BME280;32455;43.430;23.136;2022-11-30T08:47:49;98820.81;;;1.73;100.00
46722;BME280;32455;43.430;23.136;2022-11-30T08:50:34;98820.63;;;1.85;100.00
46722;BME280;32455;43.430;23.136;2022-11-30T08:53:20;98807.03;;;1.70;100.00
46722;BME280;32455;43.430;23.136;2022-11-30T08:56:08;98817.19;;;1.74;100.00
46722;BME280;32455;43.430;23.136;2022-11-30T08:58:55;98797.50;;;1.59;100.00
46722;BME280;32455;43.430;23.136;2022-11-30T09:01:40;98801.19;;;1.66;100.00
46722;BME280;32455;43.430;23.136;2022-11-30T09:04:26;98808.47;;;1.82;100.00
46722;BME280;32455;43.430;23.136;2022-11-30T09:07:12;98799.94;;;2.06;100.00
46722;BME280;32455;43.430;23.136;2022-11-30T09:09:58;98806.66;;;1.83;100.00
46722;BME280;32455;43.430;23.136;2022-11-30T09:12:43;98796.38;;;1.97;100.00
46722;BME280;32455;43.430;23.136;2022-11-30T09:15:28;98777.88;;;1.88;100.00
46722;BME280;32455;43.430;23.136;2022-11-30T09:18:13;98802.19;;;2.01;100.00
46722;BME280;32455;43.430;23.136;2022-11-30T09:21:03;98806.81;;;1.99;100.00
46722;BME280;32455;43.430;23.136;2022-11-30T09:23:50;98808.56;;;1.72;100.00
46722;BME280;32455;43.430;23.136;2022-11-30T09:26:36;98809.31;;;1.83;100.00
46722;BME280;32455;43.430;23.136;2022-11-30T09:29:22;98804.38;;;1.88;100.00
46722;BME280;32455;43.430;23.136;2022-11-30T09:32:08;98812.66;;;2.03;100.00
46722;BME280;32455;43.430;23.136;2022-11-30T09:34:54;98815.31;;;2.03;100.00
46722;BME280;32455;43.430;23.136;2022-11-30T09:37:39;98804.25;;;2.07;100.00
46722;BME280;32455;43.430;23.136;2022-11-30T09:40:27;98805.22;;;2.06;100.00
46722;BME280;32455;43.430;23.136;2022-11-30T09:46:24;98806.72;;;2.09;100.00
46722;BME280;32455;43.430;23.136;2022-11-30T09:49:18;98805.28;;;1.96;100.00
46722;BME280;32455;43.430;23.136;2022-11-30T09:52:13;98789.09;;;1.99;100.00
46722;BME280;32455;43.430;23.136;2022-11-30T09:55:06;98785.75;;;2.15;100.00
46722;BME280;32455;43.430;23.136;2022-11-30T09:57:55;98786.22;;;2.11;100.00
46722;BME280;32455;43.430;23.136;2022-11-30T10:00:42;98790.38;;;1.95;100.00
46722;BME280;32455;43.430;23.136;2022-11-30T10:03:27;98791.28;;;2.04;100.00
46722;BME280;32455;43.430;23.136;2022-11-30T10:09:31;98799.47;;;2.11;100.00
46722;BME280;32455;43.430;23.136;2022-11-30T10:12:27;98797.19;;;2.16;100.00
46722;BME280;32455;43.430;23.136;2022-11-30T10:15:40;98806.88;;;2.25;100.00
46722;BME280;32455;43.430;23.136;2022-11-30T10:21:47;98811.41;;;2.33;100.00
46722;BME280;32455;43.430;23.136;2022-11-30T10:27:31;98808.25;;;1.93;100.00
46722;BME280;32455;43.430;23.136;2022-11-30T10:30:23;98800.78;;;1.89;100.00
46722;BME280;32455;43.430;23.136;2022-11-30T10:33:16;98801.16;;;1.94;100.00
46722;BME280;32455;43.430;23.136;2022-11-30T10:36:13;98794.75;;;2.05;100.00
46722;BME280;32455;43.430;23.136;2022-11-30T10:39:02;98813.00;;;2.25;100.00
46722;BME280;32455;43.430;23.136;2022-11-30T10:41:55;98800.09;;;2.31;100.00
46722;BME280;32455;43.430;23.136;2022-11-30T10:44:45;98808.13;;;2.39;100.00
46722;BME280;32455;43.430;23.136;2022-11-30T10:48:21;98814.25;;;2.39;100.00
46722;BME280;32455;43.430;23.136;2022-11-30T10:50:46;98793.72;;;2.41;100.00
46722;BME280;32455;43.430;23.136;2022-11-30T10:53:32;98798.88;;;2.43;100.00
46722;BME280;32455;43.430;23.136;2022-11-30T10:56:18;98803.88;;;2.46;100.00
46722;BME280;32455;43.430;23.136;2022-11-30T10:59:10;98801.56;;;2.51;100.00
46722;BME280;32455;43.430;23.136;2022-11-30T11:01:57;98787.91;;;2.38;100.00
46722;BME280;32455;43.430;23.136;2022-11-30T11:04:42;98798.75;;;2.53;100.00
46722;BME280;32455;43.430;23.136;2022-11-30T11:07:26;98787.38;;;2.34;100.00
46722;BME280;32455;43.430;23.136;2022-11-30T11:13:42;98788.88;;;2.37;100.00
46722;BME280;32455;43.430;23.136;2022-11-30T11:16:39;98785.25;;;2.38;100.00
46722;BME280;32455;43.430;23.136;2022-11-30T11:19:41;98773.97;;;2.36;100.00
46722;BME280;32455;43.430;23.136;2022-11-30T11:22:30;98779.88;;;2.30;100.00
46722;BME280;32455;43.430;23.136;2022-11-30T11:25:32;98790.09;;;2.42;100.00
46722;BME280;32455;43.430;23.136;2022-11-30T11:28:18;98778.31;;;2.19;100.00
46722;BME280;32455;43.430;23.136;2022-11-30T11:31:29;98779.06;;;2.29;100.00
46722;BME280;32455;43.430;23.136;2022-11-30T11:34:34;98789.13;;;2.25;100.00
46722;BME280;32455;43.430;23.136;2022-11-30T11:37:31;98771.75;;;2.05;100.00
46722;BME280;32455;43.430;23.136;2022-11-30T11:40:22;98773.75;;;1.85;100.00
46722;BME280;32455;43.430;23.136;2022-11-30T11:43:15;98780.59;;;2.14;100.00
46722;BME280;32455;43.430;23.136;2022-11-30T11:46:12;98766.97;;;2.09;100.00
46722;BME280;32455;43.430;23.136;2022-11-30T11:49:03;98788.47;;;2.23;100.00
46722;BME280;32455;43.430;23.136;2022-11-30T11:55:04;98795.06;;;2.19;100.00
46722;BME280;32455;43.430;23.136;2022-11-30T11:57:56;98794.72;;;2.22;100.00
46722;BME280;32455;43.430;23.136;2022-11-30T12:00:44;98792.38;;;2.37;100.00
46722;BME280;32455;43.430;23.136;2022-11-30T12:07:13;98778.47;;;2.17;100.00
46722;BME280;32455;43.430;23.136;2022-11-30T12:13:19;98778.56;;;2.08;100.00
46722;BME280;32455;43.430;23.136;2022-11-30T12:19:09;98776.63;;;2.36;100.00
46722;BME280;32455;43.430;23.136;2022-11-30T12:22:36;98774.63;;;2.38;100.00
46722;BME280;32455;43.430;23.136;2022-11-30T12:25:29;98772.63;;;2.32;100.00
46722;BME280;32455;43.430;23.136;2022-11-30T12:37:45;98775.16;;;2.15;100.00
46722;BME280;32455;43.430;23.136;2022-11-30T12:41:21;98775.81;;;2.17;100.00
46722;BME280;32455;43.430;23.136;2022-11-30T12:47:30;98769.97;;;2.32;100.00
46722;BME280;32455;43.430;23.136;2022-11-30T12:50:45;98778.88;;;2.31;100.00
46722;BME280;32455;43.430;23.136;2022-11-30T13:05:56;98768.50;;;2.37;100.00
46722;BME280;32455;43.430;23.136;2022-11-30T13:08:48;98790.84;;;2.35;100.00
46722;BME280;32455;43.430;23.136;2022-11-30T13:11:40;98789.09;;;2.43;100.00
46722;BME280;32455;43.430;23.136;2022-11-30T13:14:28;98792.19;;;2.39;100.00
46722;BME280;32455;43.430;23.136;2022-11-30T13:17:18;98785.06;;;2.13;100.00
46722;BME280;32455;43.430;23.136;2022-11-30T13:20:21;98791.13;;;2.23;100.00
46722;BME280;32455;43.430;23.136;2022-11-30T13:23:15;98789.50;;;2.31;100.00
46722;BME280;32455;43.430;23.136;2022-11-30T13:31:56;98782.38;;;2.31;100.00
46722;BME280;32455;43.430;23.136;2022-11-30T13:34:48;98769.00;;;2.15;100.00
46722;BME280;32455;43.430;23.136;2022-11-30T13:37:34;98779.88;;;2.30;100.00
46722;BME280;32455;43.430;23.136;2022-11-30T13:40:20;98773.09;;;2.27;100.00
46722;BME280;32455;43.430;23.136;2022-11-30T13:43:15;98777.84;;;2.23;100.00
46722;BME280;32455;43.430;23.136;2022-11-30T13:46:14;98788.03;;;2.10;100.00
46722;BME280;32455;43.430;23.136;2022-11-30T13:49:21;98768.41;;;2.03;100.00
46722;BME280;32455;43.430;23.136;2022-11-30T13:52:09;98772.59;;;2.06;100.00
46722;BME280;32455;43.430;23.136;2022-11-30T13:54:55;98767.50;;;2.12;100.00
46722;BME280;32455;43.430;23.136;2022-11-30T13:58:04;98771.72;;;2.23;100.00
46722;BME280;32455;43.430;23.136;2022-11-30T14:01:29;98778.41;;;2.35;100.00
46722;BME280;32455;43.430;23.136;2022-11-30T14:07:14;98775.81;;;2.17;100.00
46722;BME280;32455;43.430;23.136;2022-11-30T14:16:23;98777.41;;;2.28;100.00
46722;BME280;32455;43.430;23.136;2022-11-30T14:19:11;98777.28;;;2.38;100.00
46722;BME280;32455;43.430;23.136;2022-11-30T14:21:57;98742.34;;;2.16;100.00
46722;BME280;32455;43.430;23.136;2022-11-30T14:24:45;98777.41;;;2.54;100.00
46722;BME280;32455;43.430;23.136;2022-11-30T14:27:34;98780.06;;;2.54;100.00
46722;BME280;32455;43.430;23.136;2022-11-30T14:30:22;98779.69;;;2.49;100.00
46722;BME280;32455;43.430;23.136;2022-11-30T14:33:34;98787.84;;;2.30;100.00
46722;BME280;32455;43.430;23.136;2022-11-30T14:36:27;98763.66;;;2.07;100.00
46722;BME280;32455;43.430;23.136;2022-11-30T14:39:34;98785.06;;;2.13;100.00
46722;BME280;32455;43.430;23.136;2022-11-30T14:42:25;98772.59;;;2.06;100.00
46722;BME280;32455;43.430;23.136;2022-11-30T14:45:40;98788.13;;;2.26;100.00
46722;BME280;32455;43.430;23.136;2022-11-30T14:48:25;98775.53;;;2.03;100.00
46722;BME280;32455;43.430;23.136;2022-11-30T14:51:10;98779.03;;;2.03;100.00
46722;BME280;32455;43.430;23.136;2022-11-30T14:57:30;98791.84;;;2.34;100.00
46722;BME280;32455;43.430;23.136;2022-11-30T15:00:20;98795.72;;;2.21;100.00
46722;BME280;32455;43.430;23.136;2022-11-30T15:03:17;98784.19;;;2.31;100.00
46722;BME280;32455;43.430;23.136;2022-11-30T15:06:04;98783.59;;;2.37;100.00
46722;BME280;32455;43.430;23.136;2022-11-30T15:08:53;98791.94;;;2.24;100.00
46722;BME280;32455;43.430;23.136;2022-11-30T15:11:42;98769.22;;;2.21;100.00
46722;BME280;32455;43.430;23.136;2022-11-30T15:14:28;98770.28;;;2.29;100.00
46722;BME280;32455;43.430;23.136;2022-11-30T15:17:14;98777.09;;;2.13;100.00
46722;BME280;32455;43.430;23.136;2022-11-30T15:19:59;98775.47;;;1.94;100.00
46722;BME280;32455;43.430;23.136;2022-11-30T15:22:44;98793.44;;;2.26;100.00
46722;BME280;32455;43.430;23.136;2022-11-30T15:25:36;98789.22;;;2.16;100.00
46722;BME280;32455;43.430;23.136;2022-11-30T15:28:26;98808.38;;;2.28;100.00
46722;BME280;32455;43.430;23.136;2022-11-30T15:31:15;98794.38;;;2.17;100.00
46722;BME280;32455;43.430;23.136;2022-11-30T15:34:01;98799.81;;;2.34;100.00
46722;BME280;32455;43.430;23.136;2022-11-30T15:36:47;98795.72;;;2.21;100.00
46722;BME280;32455;43.430;23.136;2022-11-30T15:39:33;98797.44;;;2.31;100.00
46722;BME280;32455;43.430;23.136;2022-11-30T15:42:25;98797.19;;;2.16;100.00
46722;BME280;32455;43.430;23.136;2022-11-30T15:45:19;98810.28;;;2.17;100.00
46722;BME280;32455;43.430;23.136;2022-11-30T15:48:29;98808.84;;;2.23;100.00
46722;BME280;32455;43.430;23.136;2022-11-30T15:51:22;98807.16;;;2.22;100.00
46722;BME280;32455;43.430;23.136;2022-11-30T15:54:07;98793.34;;;2.10;100.00
46722;BME280;32455;43.430;23.136;2022-11-30T15:56:56;98804.50;;;2.22;100.00
46722;BME280;32455;43.430;23.136;2022-11-30T15:59:41;98810.28;;;2.17;100.00
46722;BME280;32455;43.430;23.136;2022-11-30T16:02:31;98805.34;;;2.40;100.00
46722;BME280;32455;43.430;23.136;2022-11-30T16:08:03;98804.69;;;2.03;100.00
46722;BME280;32455;43.430;23.136;2022-11-30T16:10:49;98815.84;;;2.06;100.00